sensor_id;sensor_type;location;lat;lon;timestamp;pressure;altitude;pressure_sealevel;temperature;humidity
74542;BME280;63015;45.378;20.360;2023-09-18T00:01:08;100983.03;;;18.40;68.58
74542;BME280;63015;45.378;20.360;2023-09-18T00:03:09;100985.75;;;18.37;68.79
74542;BME280;63015;45.378;20.360;2023-09-18T00:05:09;100981.69;;;18.22;69.33
74542;BME280;63015;45.378;20.360;2023-09-18T00:07:10;100976.47;;;18.20;69.31
74542;BME280;63015;45.378;20.360;2023-09-18T00:09:12;100983.34;;;18.26;68.75
74542;BME280;63015;45.378;20.360;2023-09-18T00:11:14;100980.69;;;18.28;69.17
74542;BME280;63015;45.378;20.360;2023-09-18T00:13:15;100982.53;;;18.24;69.31
74542;BME280;63015;45.378;20.360;2023-09-18T00:15:16;100978.22;;;18.20;69.55
74542;BME280;63015;45.378;20.360;2023-09-18T00:17:16;100982.63;;;18.19;69.44
74542;BME280;63015;45.378;20.360;2023-09-18T00:19:17;100984.34;;;18.22;69.28
74542;BME280;63015;45.378;20.360;2023-09-18T00:21:18;100980.84;;;18.20;69.46
74542;BME280;63015;45.378;20.360;2023-09-18T00:23:19;100976.34;;;18.25;69.16
74542;BME280;63015;45.378;20.360;2023-09-18T00:25:19;100979.91;;;18.24;68.93
74542;BME280;63015;45.378;20.360;2023-09-18T00:27:20;100967.00;;;18.12;70.04
74542;BME280;63015;45.378;20.360;2023-09-18T00:29:21;100971.44;;;18.10;70.11
74542;BME280;63015;45.378;20.360;2023-09-18T00:31:22;100964.53;;;18.04;70.42
74542;BME280;63015;45.378;20.360;2023-09-18T00:33:22;100967.19;;;18.04;70.65
74542;BME280;63015;45.378;20.360;2023-09-18T00:35:23;100968.03;;;18.04;70.18
74542;BME280;63015;45.378;20.360;2023-09-18T00:37:24;100969.69;;;18.10;69.87
74542;BME280;63015;45.378;20.360;2023-09-18T00:39:26;100969.78;;;18.05;70.36
74542;BME280;63015;45.378;20.360;2023-09-18T00:41:27;100967.94;;;18.09;70.15
74542;BME280;63015;45.378;20.360;2023-09-18T00:43:28;100968.84;;;18.08;70.17
74542;BME280;63015;45.378;20.360;2023-09-18T00:45:29;100966.16;;;18.10;69.94
74542;BME280;63015;45.378;20.360;2023-09-18T00:47:30;100960.13;;;18.04;70.05
74542;BME280;63015;45.378;20.360;2023-09-18T00:49:31;100970.63;;;18.07;70.15
74542;BME280;63015;45.378;20.360;2023-09-18T00:51:32;100968.84;;;18.08;70.03
74542;BME280;63015;45.378;20.360;2023-09-18T00:53:33;100970.66;;;18.04;70.39
74542;BME280;63015;45.378;20.360;2023-09-18T00:55:36;100968.97;;;18.02;70.43
74542;BME280;63015;45.378;20.360;2023-09-18T00:57:38;100963.81;;;17.97;70.67
74542;BME280;63015;45.378;20.360;2023-09-18T00:59:39;100964.69;;;17.98;70.40
74542;BME280;63015;45.378;20.360;2023-09-18T01:01:42;100962.09;;;17.96;70.66
74542;BME280;63015;45.378;20.360;2023-09-18T01:03:42;100966.38;;;18.00;70.19
74542;BME280;63015;45.378;20.360;2023-09-18T01:05:43;100977.00;;;17.97;70.54
74542;BME280;63015;45.378;20.360;2023-09-18T01:07:44;100957.69;;;17.95;70.32
74542;BME280;63015;45.378;20.360;2023-09-18T01:09:45;100959.53;;;17.93;70.58
74542;BME280;63015;45.378;20.360;2023-09-18T01:11:49;100963.97;;;17.89;70.74
74542;BME280;63015;45.378;20.360;2023-09-18T01:14:13;100967.59;;;17.85;71.04
74542;BME280;63015;45.378;20.360;2023-09-18T01:16:22;100967.50;;;17.88;70.91
74542;BME280;63015;45.378;20.360;2023-09-18T01:18:25;100971.06;;;17.86;70.89
74542;BME280;63015;45.378;20.360;2023-09-18T01:20:26;100964.91;;;17.87;70.59
74542;BME280;63015;45.378;20.360;2023-09-18T01:22:31;100970.22;;;17.85;70.82
74542;BME280;63015;45.378;20.360;2023-09-18T01:24:33;100967.59;;;17.85;70.35
74542;BME280;63015;45.378;20.360;2023-09-18T01:26:34;100962.41;;;17.81;71.17
74542;BME280;63015;45.378;20.360;2023-09-18T01:28:35;100971.25;;;17.78;71.10
74542;BME280;63015;45.378;20.360;2023-09-18T01:30:36;100972.00;;;17.83;70.87
74542;BME280;63015;45.378;20.360;2023-09-18T01:32:39;100969.41;;;17.82;70.75
74542;BME280;63015;45.378;20.360;2023-09-18T01:34:46;100965.13;;;17.78;70.99
74542;BME280;63015;45.378;20.360;2023-09-18T01:36:47;100970.41;;;17.76;70.95
74542;BME280;63015;45.378;20.360;2023-09-18T01:38:49;100973.13;;;17.73;70.93
74542;BME280;63015;45.378;20.360;2023-09-18T01:40:52;100976.69;;;17.70;71.51
74542;BME280;63015;45.378;20.360;2023-09-18T01:42:54;100978.44;;;17.71;71.64
74542;BME280;63015;45.378;20.360;2023-09-18T01:44:55;100973.19;;;17.70;71.53
74542;BME280;63015;45.378;20.360;2023-09-18T01:47:00;100965.28;;;17.70;71.44
74542;BME280;63015;45.378;20.360;2023-09-18T01:49:03;100961.69;;;17.74;70.98
74542;BME280;63015;45.378;20.360;2023-09-18T01:51:04;100960.06;;;17.67;71.72
74542;BME280;63015;45.378;20.360;2023-09-18T01:53:04;100960.78;;;17.73;71.58
74542;BME280;63015;45.378;20.360;2023-09-18T01:55:05;100961.81;;;17.68;71.71
74542;BME280;63015;45.378;20.360;2023-09-18T01:57:06;100966.22;;;17.66;72.07
74542;BME280;63015;45.378;20.360;2023-09-18T01:59:08;100966.13;;;17.70;71.35
74542;BME280;63015;45.378;20.360;2023-09-18T02:01:10;100967.00;;;17.72;71.60
74542;BME280;63015;45.378;20.360;2023-09-18T02:03:11;100967.00;;;17.72;71.43
74542;BME280;63015;45.378;20.360;2023-09-18T02:05:12;100964.41;;;17.69;71.44
74542;BME280;63015;45.378;20.360;2023-09-18T02:07:13;100965.44;;;17.62;71.94
74542;BME280;63015;45.378;20.360;2023-09-18T02:09:14;100969.75;;;17.66;71.97
74542;BME280;63015;45.378;20.360;2023-09-18T02:11:15;100968.81;;;17.69;71.58
74542;BME280;63015;45.378;20.360;2023-09-18T02:13:15;100964.53;;;17.65;71.75
74542;BME280;63015;45.378;20.360;2023-09-18T02:15:18;100969.84;;;17.62;71.72
74542;BME280;63015;45.378;20.360;2023-09-18T02:17:18;100969.78;;;17.65;71.95
74542;BME280;63015;45.378;20.360;2023-09-18T02:19:21;100969.91;;;17.58;72.35
74542;BME280;63015;45.378;20.360;2023-09-18T02:21:22;100972.44;;;17.65;71.48
74542;BME280;63015;45.378;20.360;2023-09-18T02:23:23;100969.88;;;17.60;71.48
74542;BME280;63015;45.378;20.360;2023-09-18T02:25:24;100969.84;;;17.62;71.61
74542;BME280;63015;45.378;20.360;2023-09-18T02:27:26;100970.91;;;17.53;71.96
74542;BME280;63015;45.378;20.360;2023-09-18T02:29:27;100965.66;;;17.51;72.05
74542;BME280;63015;45.378;20.360;2023-09-18T02:31:29;100960.47;;;17.48;72.36
74542;BME280;63015;45.378;20.360;2023-09-18T02:33:30;100968.38;;;17.48;72.22
74542;BME280;63015;45.378;20.360;2023-09-18T02:35:33;100963.97;;;17.49;72.11
74542;BME280;63015;45.378;20.360;2023-09-18T02:37:33;100958.66;;;17.50;71.92
74542;BME280;63015;45.378;20.360;2023-09-18T02:39:34;100968.28;;;17.51;72.04
74542;BME280;63015;45.378;20.360;2023-09-18T02:41:35;100962.19;;;17.51;71.83
74542;BME280;63015;45.378;20.360;2023-09-18T02:43:36;100966.53;;;17.52;71.77
74542;BME280;63015;45.378;20.360;2023-09-18T02:45:39;100976.28;;;17.48;72.28
74542;BME280;63015;45.378;20.360;2023-09-18T02:47:40;100972.03;;;17.41;72.54
74542;BME280;63015;45.378;20.360;2023-09-18T02:49:42;100973.75;;;17.42;72.54
74542;BME280;63015;45.378;20.360;2023-09-18T02:51:43;100977.25;;;17.42;72.56
74542;BME280;63015;45.378;20.360;2023-09-18T02:53:44;100986.09;;;17.41;72.33
74542;BME280;63015;45.378;20.360;2023-09-18T02:55:46;100975.59;;;17.38;72.27
74542;BME280;63015;45.378;20.360;2023-09-18T02:57:47;100980.94;;;17.35;72.52
74542;BME280;63015;45.378;20.360;2023-09-18T02:59:48;100969.50;;;17.36;72.54
74542;BME280;63015;45.378;20.360;2023-09-18T03:01:49;100983.59;;;17.34;72.56
74542;BME280;63015;45.378;20.360;2023-09-18T03:03:50;100980.94;;;17.35;72.45
74542;BME280;63015;45.378;20.360;2023-09-18T03:05:50;100985.31;;;17.35;72.43
74542;BME280;63015;45.378;20.360;2023-09-18T03:07:51;100979.25;;;17.31;72.86
74542;BME280;63015;45.378;20.360;2023-09-18T03:09:52;100975.69;;;17.34;72.85
74542;BME280;63015;45.378;20.360;2023-09-18T03:11:53;100980.97;;;17.34;72.66
74542;BME280;63015;45.378;20.360;2023-09-18T03:13:54;100978.41;;;17.29;73.12
74542;BME280;63015;45.378;20.360;2023-09-18T03:15:55;100981.81;;;17.34;72.83
74542;BME280;63015;45.378;20.360;2023-09-18T03:18:02;100980.94;;;17.35;72.58
74542;BME280;63015;45.378;20.360;2023-09-18T03:20:03;100983.56;;;17.35;72.68
74542;BME280;63015;45.378;20.360;2023-09-18T03:22:04;100978.38;;;17.31;72.79
74542;BME280;63015;45.378;20.360;2023-09-18T03:24:06;100980.00;;;17.38;72.37
74542;BME280;63015;45.378;20.360;2023-09-18T03:26:07;100981.91;;;17.31;73.09
74542;BME280;63015;45.378;20.360;2023-09-18T03:28:07;100974.00;;;17.31;73.20
74542;BME280;63015;45.378;20.360;2023-09-18T03:30:08;100979.41;;;17.23;73.13
74542;BME280;63015;45.378;20.360;2023-09-18T03:32:10;100982.91;;;17.24;73.33
74542;BME280;63015;45.378;20.360;2023-09-18T03:34:12;100981.13;;;17.24;73.44
74542;BME280;63015;45.378;20.360;2023-09-18T03:36:13;100978.53;;;17.23;73.29
74542;BME280;63015;45.378;20.360;2023-09-18T03:38:15;100979.31;;;17.28;73.14
74542;BME280;63015;45.378;20.360;2023-09-18T03:40:18;100975.81;;;17.28;72.75
74542;BME280;63015;45.378;20.360;2023-09-18T03:42:19;100976.72;;;17.26;73.01
74542;BME280;63015;45.378;20.360;2023-09-18T03:44:20;100975.81;;;17.28;72.63
74542;BME280;63015;45.378;20.360;2023-09-18T03:46:21;100976.78;;;17.23;73.26
74542;BME280;63015;45.378;20.360;2023-09-18T03:48:23;100970.66;;;17.21;73.46
74542;BME280;63015;45.378;20.360;2023-09-18T03:50:24;100975.84;;;17.24;73.20
74542;BME280;63015;45.378;20.360;2023-09-18T03:52:25;100970.63;;;17.23;73.12
74542;BME280;63015;45.378;20.360;2023-09-18T03:54:26;100979.38;;;17.25;73.25
74542;BME280;63015;45.378;20.360;2023-09-18T03:56:26;100977.78;;;17.16;73.16
74542;BME280;63015;45.378;20.360;2023-09-18T03:58:27;100988.25;;;17.19;73.34
74542;BME280;63015;45.378;20.360;2023-09-18T04:00:28;100972.28;;;17.27;73.07
74542;BME280;63015;45.378;20.360;2023-09-18T04:02:29;100969.66;;;17.27;72.78
74542;BME280;63015;45.378;20.360;2023-09-18T04:04:30;100969.63;;;17.30;72.35
74542;BME280;63015;45.378;20.360;2023-09-18T04:06:42;100966.28;;;17.20;73.40
74542;BME280;63015;45.378;20.360;2023-09-18T04:08:43;100972.56;;;17.15;73.53
74542;BME280;63015;45.378;20.360;2023-09-18T04:10:44;100973.38;;;17.18;73.38
74542;BME280;63015;45.378;20.360;2023-09-18T04:12:45;100966.31;;;17.19;73.21
74542;BME280;63015;45.378;20.360;2023-09-18T04:14:46;100966.28;;;17.20;73.17
74542;BME280;63015;45.378;20.360;2023-09-18T04:16:47;100957.53;;;17.20;73.07
74542;BME280;63015;45.378;20.360;2023-09-18T04:18:47;100960.22;;;17.17;73.05
74542;BME280;63015;45.378;20.360;2023-09-18T04:20:48;100960.16;;;17.20;73.40
74542;BME280;63015;45.378;20.360;2023-09-18T04:23:28;100966.28;;;17.20;73.29
74542;BME280;63015;45.378;20.360;2023-09-18T04:25:29;100960.91;;;17.26;72.67
74542;BME280;63015;45.378;20.360;2023-09-18T04:27:31;100958.44;;;17.19;73.11
74542;BME280;63015;45.378;20.360;2023-09-18T04:29:32;100961.75;;;17.27;73.03
74542;BME280;63015;45.378;20.360;2023-09-18T04:31:33;100960.09;;;17.23;72.93
74542;BME280;63015;45.378;20.360;2023-09-18T04:33:34;100960.97;;;17.22;73.00
74542;BME280;63015;45.378;20.360;2023-09-18T04:35:35;100959.19;;;17.24;73.04
74542;BME280;63015;45.378;20.360;2023-09-18T04:37:37;100965.31;;;17.26;73.23
74542;BME280;63015;45.378;20.360;2023-09-18T04:39:39;100953.78;;;17.32;72.66
74542;BME280;63015;45.378;20.360;2023-09-18T04:41:40;100952.81;;;17.36;72.33
74542;BME280;63015;45.378;20.360;2023-09-18T04:43:41;100949.19;;;17.40;72.24
74542;BME280;63015;45.378;20.360;2023-09-18T04:45:45;100951.06;;;17.36;72.31
74542;BME280;63015;45.378;20.360;2023-09-18T04:47:47;100940.59;;;17.32;72.51
74542;BME280;63015;45.378;20.360;2023-09-18T04:49:48;100946.72;;;17.32;72.51
74542;BME280;63015;45.378;20.360;2023-09-18T04:51:51;100941.34;;;17.38;72.67
74542;BME280;63015;45.378;20.360;2023-09-18T04:53:52;100948.22;;;17.46;72.27
74542;BME280;63015;45.378;20.360;2023-09-18T04:55:52;100934.16;;;17.45;72.25
74542;BME280;63015;45.378;20.360;2023-09-18T04:57:53;100950.00;;;17.43;72.39
74542;BME280;63015;45.378;20.360;2023-09-18T04:59:54;100948.84;;;17.58;71.95
74542;BME280;63015;45.378;20.360;2023-09-18T05:01:55;100945.31;;;17.58;71.91
74542;BME280;63015;45.378;20.360;2023-09-18T05:03:55;100945.22;;;17.63;71.64
74542;BME280;63015;45.378;20.360;2023-09-18T05:05:56;100938.16;;;17.63;71.65
74542;BME280;63015;45.378;20.360;2023-09-18T05:07:57;100930.91;;;17.74;71.25
74542;BME280;63015;45.378;20.360;2023-09-18T05:09:58;100933.63;;;17.71;71.64
74542;BME280;63015;45.378;20.360;2023-09-18T05:11:58;100928.16;;;17.79;71.05
74542;BME280;63015;45.378;20.360;2023-09-18T05:13:59;100934.38;;;17.77;71.16
74542;BME280;63015;45.378;20.360;2023-09-18T05:15:59;100929.91;;;17.80;71.16
74542;BME280;63015;45.378;20.360;2023-09-18T05:18:01;100929.75;;;17.86;70.95
74542;BME280;63015;45.378;20.360;2023-09-18T05:20:04;100939.06;;;18.03;70.42
74542;BME280;63015;45.378;20.360;2023-09-18T05:22:06;100941.59;;;18.07;69.95
74542;BME280;63015;45.378;20.360;2023-09-18T05:24:07;100946.75;;;18.12;69.97
74542;BME280;63015;45.378;20.360;2023-09-18T05:26:07;100943.94;;;18.20;69.80
74542;BME280;63015;45.378;20.360;2023-09-18T05:28:08;100938.75;;;18.17;69.89
74542;BME280;63015;45.378;20.360;2023-09-18T05:30:18;100949.94;;;18.27;69.23
74542;BME280;63015;45.378;20.360;2023-09-18T05:32:21;100951.41;;;18.38;69.16
74542;BME280;63015;45.378;20.360;2023-09-18T05:34:21;100945.06;;;18.46;69.02
74542;BME280;63015;45.378;20.360;2023-09-18T05:36:22;100957.91;;;18.60;68.73
74542;BME280;63015;45.378;20.360;2023-09-18T05:38:23;100950.63;;;18.69;68.39
74542;BME280;63015;45.378;20.360;2023-09-18T05:40:24;100952.31;;;18.72;67.93
74542;BME280;63015;45.378;20.360;2023-09-18T05:42:27;100948.41;;;18.87;68.06
74542;BME280;63015;45.378;20.360;2023-09-18T05:44:27;100945.66;;;18.92;67.75
74542;BME280;63015;45.378;20.360;2023-09-18T05:46:28;100947.81;;;19.09;67.07
74542;BME280;63015;45.378;20.360;2023-09-18T05:48:29;100946.47;;;19.25;66.86
74542;BME280;63015;45.378;20.360;2023-09-18T05:50:31;100952.66;;;19.24;66.72
74542;BME280;63015;45.378;20.360;2023-09-18T05:52:33;100945.19;;;19.40;66.23
74542;BME280;63015;45.378;20.360;2023-09-18T05:54:34;100943.78;;;19.58;65.52
74542;BME280;63015;45.378;20.360;2023-09-18T05:56:35;100944.09;;;19.76;65.31
74542;BME280;63015;45.378;20.360;2023-09-18T05:58:35;100943.00;;;19.84;64.53
74542;BME280;63015;45.378;20.360;2023-09-18T06:00:36;100933.53;;;20.06;63.95
74542;BME280;63015;45.378;20.360;2023-09-18T06:02:37;100934.69;;;20.24;63.90
74542;BME280;63015;45.378;20.360;2023-09-18T06:04:37;100937.53;;;20.17;63.24
74542;BME280;63015;45.378;20.360;2023-09-18T06:06:38;100930.56;;;20.42;62.48
74542;BME280;63015;45.378;20.360;2023-09-18T06:08:39;100928.25;;;20.58;62.52
74542;BME280;63015;45.378;20.360;2023-09-18T06:10:40;100928.38;;;20.80;61.71
74542;BME280;63015;45.378;20.360;2023-09-18T06:12:40;100926.69;;;21.02;61.28
74542;BME280;63015;45.378;20.360;2023-09-18T06:14:41;100918.47;;;21.10;60.74
74542;BME280;63015;45.378;20.360;2023-09-18T06:16:42;100919.09;;;21.17;59.98
74542;BME280;63015;45.378;20.360;2023-09-18T06:18:43;100917.97;;;21.24;59.52
74542;BME280;63015;45.378;20.360;2023-09-18T06:20:44;100918.97;;;21.44;59.80
74542;BME280;63015;45.378;20.360;2023-09-18T06:22:46;100912.94;;;21.64;58.82
74542;BME280;63015;45.378;20.360;2023-09-18T06:24:46;100921.03;;;22.05;58.22
74542;BME280;63015;45.378;20.360;2023-09-18T06:26:47;100924.75;;;22.22;57.41
74542;BME280;63015;45.378;20.360;2023-09-18T06:28:48;100917.41;;;22.28;56.27
74542;BME280;63015;45.378;20.360;2023-09-18T06:30:48;100929.13;;;22.23;56.53
74542;BME280;63015;45.378;20.360;2023-09-18T06:32:49;100919.50;;;22.42;56.45
74542;BME280;63015;45.378;20.360;2023-09-18T06:34:50;100924.97;;;22.60;55.60
74542;BME280;63015;45.378;20.360;2023-09-18T06:36:50;100927.69;;;22.38;55.40
74542;BME280;63015;45.378;20.360;2023-09-18T06:38:51;100931.78;;;22.45;55.26
74542;BME280;63015;45.378;20.360;2023-09-18T06:40:52;100932.72;;;22.44;55.05
74542;BME280;63015;45.378;20.360;2023-09-18T06:42:58;100937.66;;;22.53;55.76
74542;BME280;63015;45.378;20.360;2023-09-18T06:44:59;100926.22;;;22.72;55.05
74542;BME280;63015;45.378;20.360;2023-09-18T06:47:01;100926.53;;;22.85;54.53
74542;BME280;63015;45.378;20.360;2023-09-18T06:49:02;100927.44;;;23.04;54.33
74542;BME280;63015;45.378;20.360;2023-09-18T06:51:03;100924.09;;;23.20;54.14
74542;BME280;63015;45.378;20.360;2023-09-18T06:53:04;100920.97;;;23.30;53.18
74542;BME280;63015;45.378;20.360;2023-09-18T06:55:05;100931.06;;;23.22;53.23
74542;BME280;63015;45.378;20.360;2023-09-18T06:57:05;100917.72;;;23.43;53.01
74542;BME280;63015;45.378;20.360;2023-09-18T06:59:06;100927.44;;;23.44;53.08
74542;BME280;63015;45.378;20.360;2023-09-18T07:01:07;100930.31;;;23.39;52.55
74542;BME280;63015;45.378;20.360;2023-09-18T07:03:07;100924.13;;;23.39;52.70
74542;BME280;63015;45.378;20.360;2023-09-18T07:05:10;100919.72;;;23.38;52.48
74542;BME280;63015;45.378;20.360;2023-09-18T07:07:12;100917.41;;;23.87;51.91
74542;BME280;63015;45.378;20.360;2023-09-18T07:09:13;100933.31;;;24.25;51.17
74542;BME280;63015;45.378;20.360;2023-09-18T07:11:14;100924.91;;;24.16;50.96
74542;BME280;63015;45.378;20.360;2023-09-18T07:13:14;100924.22;;;24.29;50.35
74542;BME280;63015;45.378;20.360;2023-09-18T07:15:15;100931.34;;;24.29;50.45
74542;BME280;63015;45.378;20.360;2023-09-18T07:17:16;100924.84;;;24.35;50.39
74542;BME280;63015;45.378;20.360;2023-09-18T07:19:16;100930.56;;;24.27;50.42
74542;BME280;63015;45.378;20.360;2023-09-18T07:21:17;100925.31;;;24.43;49.99
74542;BME280;63015;45.378;20.360;2023-09-18T07:23:18;100925.66;;;24.72;50.00
74542;BME280;63015;45.378;20.360;2023-09-18T07:25:18;100922.75;;;25.10;49.07
74542;BME280;63015;45.378;20.360;2023-09-18T07:27:19;100919.31;;;25.24;48.79
74542;BME280;63015;45.378;20.360;2023-09-18T07:29:20;100923.16;;;25.36;48.52
74542;BME280;63015;45.378;20.360;2023-09-18T07:31:21;100923.94;;;25.38;48.06
74542;BME280;63015;45.378;20.360;2023-09-18T07:33:21;100920.66;;;25.81;48.30
74542;BME280;63015;45.378;20.360;2023-09-18T07:35:22;100920.22;;;25.88;47.04
74542;BME280;63015;45.378;20.360;2023-09-18T07:37:23;100929.28;;;25.54;46.97
74542;BME280;63015;45.378;20.360;2023-09-18T07:39:23;100920.41;;;25.53;46.99
74542;BME280;63015;45.378;20.360;2023-09-18T07:41:24;100917.53;;;26.04;46.87
74542;BME280;63015;45.378;20.360;2023-09-18T07:43:25;100928.19;;;26.20;46.32
74542;BME280;63015;45.378;20.360;2023-09-18T07:45:26;100919.91;;;26.25;46.39
74542;BME280;63015;45.378;20.360;2023-09-18T07:47:26;100920.72;;;26.41;45.81
74542;BME280;63015;45.378;20.360;2023-09-18T07:49:27;100920.94;;;26.22;44.79
74542;BME280;63015;45.378;20.360;2023-09-18T07:51:27;100923.56;;;26.08;45.49
74542;BME280;63015;45.378;20.360;2023-09-18T07:53:28;100927.81;;;25.80;46.15
74542;BME280;63015;45.378;20.360;2023-09-18T07:55:29;100920.28;;;26.03;45.94
74542;BME280;63015;45.378;20.360;2023-09-18T07:57:30;100914.72;;;26.07;45.64
74542;BME280;63015;45.378;20.360;2023-09-18T07:59:32;100906.41;;;26.42;45.35
74542;BME280;63015;45.378;20.360;2023-09-18T08:01:33;100919.88;;;27.00;45.37
74542;BME280;63015;45.378;20.360;2023-09-18T08:03:34;100922.53;;;27.15;44.53
74542;BME280;63015;45.378;20.360;2023-09-18T08:05:35;100918.06;;;27.15;44.06
74542;BME280;63015;45.378;20.360;2023-09-18T08:07:36;100921.72;;;26.55;44.73
74542;BME280;63015;45.378;20.360;2023-09-18T08:09:37;100910.59;;;27.06;44.20
74542;BME280;63015;45.378;20.360;2023-09-18T08:11:39;100909.16;;;27.15;43.90
74542;BME280;63015;45.378;20.360;2023-09-18T08:13:42;100909.31;;;27.55;43.22
74542;BME280;63015;45.378;20.360;2023-09-18T08:15:43;100908.19;;;27.45;42.87
74542;BME280;63015;45.378;20.360;2023-09-18T08:17:44;100910.94;;;27.57;42.71
74542;BME280;63015;45.378;20.360;2023-09-18T08:19:50;100906.41;;;27.72;42.01
74542;BME280;63015;45.378;20.360;2023-09-18T08:21:53;100913.88;;;27.67;42.31
74542;BME280;63015;45.378;20.360;2023-09-18T08:23:55;100905.13;;;27.51;41.95
74542;BME280;63015;45.378;20.360;2023-09-18T08:25:56;100910.63;;;27.89;41.68
74542;BME280;63015;45.378;20.360;2023-09-18T08:27:58;100907.97;;;27.62;41.83
74542;BME280;63015;45.378;20.360;2023-09-18T08:29:58;100904.34;;;27.63;42.14
74542;BME280;63015;45.378;20.360;2023-09-18T08:31:59;100905.63;;;27.70;41.76
74542;BME280;63015;45.378;20.360;2023-09-18T08:34:00;100913.78;;;28.24;41.37
74542;BME280;63015;45.378;20.360;2023-09-18T08:36:00;100906.03;;;28.19;41.15
74542;BME280;63015;45.378;20.360;2023-09-18T08:38:01;100902.09;;;28.37;41.01
74542;BME280;63015;45.378;20.360;2023-09-18T08:40:03;100906.56;;;27.84;41.18
74542;BME280;63015;45.378;20.360;2023-09-18T08:42:10;100901.59;;;27.78;41.18
74542;BME280;63015;45.378;20.360;2023-09-18T08:44:12;100905.59;;;28.12;40.53
74542;BME280;63015;45.378;20.360;2023-09-18T08:46:12;100902.19;;;28.23;41.21
74542;BME280;63015;45.378;20.360;2023-09-18T08:48:13;100896.97;;;28.34;40.88
74542;BME280;63015;45.378;20.360;2023-09-18T08:50:15;100899.88;;;28.04;41.10
74542;BME280;63015;45.378;20.360;2023-09-18T08:52:16;100905.78;;;28.09;41.16
74542;BME280;63015;45.378;20.360;2023-09-18T08:54:17;100900.38;;;27.96;41.36
74542;BME280;63015;45.378;20.360;2023-09-18T08:56:17;100900.38;;;27.69;41.41
74542;BME280;63015;45.378;20.360;2023-09-18T08:58:18;100898.09;;;27.77;41.91
74542;BME280;63015;45.378;20.360;2023-09-18T09:00:19;100894.78;;;28.14;41.22
74542;BME280;63015;45.378;20.360;2023-09-18T09:02:20;100893.09;;;28.38;40.56
74542;BME280;63015;45.378;20.360;2023-09-18T09:04:21;100894.41;;;28.59;40.75
74542;BME280;63015;45.378;20.360;2023-09-18T09:06:22;100891.53;;;28.75;40.49
74542;BME280;63015;45.378;20.360;2023-09-18T09:08:22;100889.06;;;28.59;39.85
74542;BME280;63015;45.378;20.360;2023-09-18T09:10:23;100886.66;;;28.41;40.10
74542;BME280;63015;45.378;20.360;2023-09-18T09:12:51;100885.06;;;28.64;40.06
74542;BME280;63015;45.378;20.360;2023-09-18T09:15:03;100878.00;;;28.63;39.82
74542;BME280;63015;45.378;20.360;2023-09-18T09:17:07;100875.78;;;28.83;39.95
74542;BME280;63015;45.378;20.360;2023-09-18T09:19:07;100865.25;;;28.80;40.03
74542;BME280;63015;45.378;20.360;2023-09-18T09:21:08;100861.19;;;28.87;39.69
74542;BME280;63015;45.378;20.360;2023-09-18T09:23:09;100854.53;;;28.80;39.45
74542;BME280;63015;45.378;20.360;2023-09-18T09:25:31;100862.91;;;28.62;39.69
74542;BME280;63015;45.378;20.360;2023-09-18T09:27:42;100851.44;;;28.73;39.54
74542;BME280;63015;45.378;20.360;2023-09-18T09:29:45;100857.09;;;28.81;39.98
74542;BME280;63015;45.378;20.360;2023-09-18T09:34:27;100864.16;;;28.57;40.39
74542;BME280;63015;45.378;20.360;2023-09-18T09:36:30;100854.84;;;28.88;39.88
74542;BME280;63015;45.378;20.360;2023-09-18T09:38:33;100854.81;;;29.14;39.14
74542;BME280;63015;45.378;20.360;2023-09-18T09:40:34;100850.91;;;29.18;39.54
74542;BME280;63015;45.378;20.360;2023-09-18T09:42:41;100835.22;;;29.38;38.73
74542;BME280;63015;45.378;20.360;2023-09-18T09:44:42;100826.47;;;29.47;38.99
74542;BME280;63015;45.378;20.360;2023-09-18T09:46:50;100825.69;;;29.58;38.17
74542;BME280;63015;45.378;20.360;2023-09-18T09:49:02;100829.50;;;29.42;38.18
74542;BME280;63015;45.378;20.360;2023-09-18T09:51:03;100838.03;;;29.60;38.55
74542;BME280;63015;45.378;20.360;2023-09-18T09:53:04;100821.66;;;29.63;38.41
74542;BME280;63015;45.378;20.360;2023-09-18T09:55:18;100826.31;;;29.37;38.66
74542;BME280;63015;45.378;20.360;2023-09-18T09:57:19;100827.72;;;29.54;38.70
74542;BME280;63015;45.378;20.360;2023-09-18T09:59:20;100825.28;;;29.51;38.72
74542;BME280;63015;45.378;20.360;2023-09-18T10:01:20;100821.16;;;29.58;38.47
74542;BME280;63015;45.378;20.360;2023-09-18T10:03:21;100826.81;;;29.91;37.95
74542;BME280;63015;45.378;20.360;2023-09-18T10:05:28;100823.28;;;29.90;37.92
74542;BME280;63015;45.378;20.360;2023-09-18T10:07:30;100819.50;;;29.68;37.79
74542;BME280;63015;45.378;20.360;2023-09-18T10:09:34;100815.81;;;29.21;38.45
74542;BME280;63015;45.378;20.360;2023-09-18T10:11:41;100811.44;;;29.44;38.34
74542;BME280;63015;45.378;20.360;2023-09-18T10:15:48;100803.84;;;29.62;38.47
74542;BME280;63015;45.378;20.360;2023-09-18T10:17:54;100805.75;;;29.49;38.40
74542;BME280;63015;45.378;20.360;2023-09-18T10:20:05;100803.97;;;29.24;38.72
74542;BME280;63015;45.378;20.360;2023-09-18T10:22:18;100808.63;;;29.22;38.46
74542;BME280;63015;45.378;20.360;2023-09-18T10:24:24;100802.09;;;29.50;38.50
74542;BME280;63015;45.378;20.360;2023-09-18T10:26:26;100807.19;;;29.77;37.73
74542;BME280;63015;45.378;20.360;2023-09-18T10:28:31;100796.53;;;29.64;38.28
74542;BME280;63015;45.378;20.360;2023-09-18T10:30:33;100791.00;;;29.55;38.41
74542;BME280;63015;45.378;20.360;2023-09-18T10:32:35;100789.69;;;29.96;38.12
74542;BME280;63015;45.378;20.360;2023-09-18T10:34:36;100793.78;;;30.13;37.98